createdAt,value
2023-01-29T00:09:08.128Z,100674.78
2023-01-29T00:19:10.912Z,100683.44
2023-01-29T00:29:13.591Z,100691.25
2023-01-29T00:39:16.091Z,100689.53
2023-01-29T00:49:18.552Z,100699.97
2023-01-29T00:59:20.986Z,100695.59
2023-01-29T01:09:41.957Z,100692.16
2023-01-29T01:19:44.855Z,100698.22
2023-01-29T01:29:47.731Z,100686.91
2023-01-29T01:39:50.640Z,100692.09
2023-01-29T01:49:54.721Z,100690.41
2023-01-29T02:00:10.210Z,100703.41
2023-01-29T02:10:22.731Z,100710.34
2023-01-29T02:20:31.947Z,100712.06
2023-01-29T02:30:55.810Z,100716.34
2023-01-29T02:41:04.642Z,100734.59
2023-01-29T02:51:23.268Z,100725.94
2023-01-29T03:01:35.985Z,100730.28
2023-01-29T03:11:42.723Z,100736.38
2023-01-29T03:21:51.406Z,100746.75
2023-01-29T03:32:08.514Z,100746.78
2023-01-29T03:42:30.035Z,100768.44
2023-01-29T03:52:55.949Z,100758.88
2023-01-29T04:03:07.898Z,100762.34
2023-01-29T04:13:15.938Z,100762.31
2023-01-29T04:23:26.446Z,100751.03
2023-01-29T04:33:48.187Z,100748.41
2023-01-29T04:44:05.928Z,100737.97
2023-01-29T04:54:19.907Z,100741.41
2023-01-29T05:04:24.670Z,100737.94
2023-01-29T05:14:30.499Z,100736.16
2023-01-29T05:24:33.070Z,100746.50
2023-01-29T05:34:35.598Z,100732.56
2023-01-29T05:44:38.034Z,100749.97
2023-01-29T05:54:40.578Z,100764.69
2023-01-29T06:04:43.004Z,100757.81
2023-01-29T06:14:45.454Z,100769.94
2023-01-29T06:24:47.878Z,100790.78
2023-01-29T06:34:50.389Z,100801.22
2023-01-29T06:44:52.891Z,100810.72
2023-01-29T06:54:56.303Z,100814.97
2023-01-29T07:04:58.780Z,100816.72
2023-01-29T07:15:01.372Z,100805.41
2023-01-29T07:25:04.401Z,100806.34
2023-01-29T07:35:08.007Z,100813.28
2023-01-29T07:45:11.391Z,100816.69
2023-01-29T07:55:13.888Z,100811.53
2023-01-29T08:05:16.578Z,100824.63
2023-01-29T08:15:19.146Z,100805.63
2023-01-29T08:25:21.635Z,100810.94
2023-01-29T08:35:24.865Z,100808.31
2023-01-29T08:45:27.400Z,100815.22
2023-01-29T08:55:30.145Z,100816.25
2023-01-29T09:05:32.662Z,100829.31
2023-01-29T09:15:35.307Z,100840.69
2023-01-29T09:25:38.311Z,100838.28
2023-01-29T09:35:42.472Z,100853.84
2023-01-29T09:46:13.472Z,100854.78
2023-01-29T09:56:28.818Z,100842.66
2023-01-29T10:07:03.810Z,100854.81
2023-01-29T10:17:06.568Z,100850.56
2023-01-29T10:27:15.587Z,100849.66
2023-01-29T10:37:24.795Z,100839.25
2023-01-29T10:47:56.894Z,100837.44
2023-01-29T10:58:32.516Z,100827.84
2023-01-29T11:08:57.463Z,100829.63
2023-01-29T11:19:01.671Z,100831.31
2023-01-29T11:29:04.223Z,100790.50
2023-01-29T11:39:23.975Z,100755.94
2023-01-29T11:49:33.833Z,100743.28
2023-01-29T11:59:39.485Z,100754.78
2023-01-29T12:09:51.550Z,100744.38
2023-01-29T12:20:07.343Z,100741.75
2023-01-29T12:30:31.709Z,100739.13
2023-01-29T12:40:48.887Z,100732.19
2023-01-29T12:50:53.886Z,100720.81
2023-01-29T13:01:03.255Z,100689.31
2023-01-29T13:11:39.663Z,100677.28
2023-01-29T13:21:44.666Z,100668.56
2023-01-29T13:31:49.939Z,100652.53
2023-01-29T13:41:53.736Z,100659.00
2023-01-29T13:51:57.577Z,100656.50
2023-01-29T14:02:02.765Z,100643.50
2023-01-29T14:12:25.562Z,100646.97
2023-01-29T14:22:29.786Z,100643.50
2023-01-29T14:32:32.804Z,100641.75
2023-01-29T14:43:07.865Z,100631.31
2023-01-29T14:53:40.347Z,100648.66
2023-01-29T15:03:58.345Z,100652.13
2023-01-29T15:14:16.789Z,100648.63
2023-01-29T15:24:19.339Z,100623.44
2023-01-29T15:34:22.301Z,100626.06
2023-01-29T15:44:25.141Z,100617.41
2023-01-29T15:54:31.767Z,100613.06
2023-01-29T16:04:34.573Z,100625.25
2023-01-29T16:14:37.225Z,100643.44
2023-01-29T16:24:39.991Z,100645.19
2023-01-29T16:34:45.582Z,100646.94
2023-01-29T16:45:04.357Z,100659.06
2023-01-29T16:55:13.278Z,100659.00
2023-01-29T17:05:30.951Z,100665.94
2023-01-29T17:15:46.184Z,100678.91
2023-01-29T17:25:49.642Z,100674.59
2023-01-29T17:35:52.895Z,100660.69
2023-01-29T17:45:57.144Z,100648.53
2023-01-29T17:55:59.972Z,100645.91
2023-01-29T18:06:03.286Z,100627.56
2023-01-29T18:16:06.443Z,100625.81
2023-01-29T18:26:12.669Z,100617.97
2023-01-29T18:36:15.530Z,100613.69
2023-01-29T18:46:18.813Z,100595.41
2023-01-29T18:56:22.269Z,100586.75
2023-01-29T19:06:25.294Z,100582.38
2023-01-29T19:16:28.157Z,100579.72
2023-01-29T19:26:34.090Z,100577.84
2023-01-29T19:36:37.071Z,100573.41
2023-01-29T19:46:39.896Z,100553.38
2023-01-29T19:56:42.670Z,100566.31
2023-01-29T20:06:45.143Z,100556.72
2023-01-29T20:16:48.003Z,100541.88
2023-01-29T20:26:50.804Z,100538.31
2023-01-29T20:36:53.920Z,100522.72
2023-01-29T20:47:01.872Z,100506.44
2023-01-29T20:57:04.653Z,100506.44
2023-01-29T21:07:07.483Z,100508.91
2023-01-29T21:17:10.654Z,100505.19
2023-01-29T21:27:13.405Z,100504.09
2023-01-29T21:37:16.071Z,100496.25
2023-01-29T21:47:18.965Z,100482.31
2023-01-29T21:57:21.467Z,100483.97
2023-01-29T22:07:24.517Z,100479.56
2023-01-29T22:17:27.398Z,100469.97
2023-01-29T22:27:33.086Z,100459.63
2023-01-29T22:37:35.570Z,100457.78
2023-01-29T22:47:38.508Z,100449.94
2023-01-29T22:57:41.014Z,100451.72
2023-01-29T23:07:43.682Z,100442.09
2023-01-29T23:17:46.167Z,100428.09
2023-01-29T23:27:48.828Z,100416.09
2023-01-29T23:37:51.335Z,100405.63
2023-01-29T23:47:53.909Z,100403.06
2023-01-29T23:57:56.527Z,100393.59
